sensor_id;sensor_type;location;lat;lon;timestamp;temperature;humidity
35668;DHT22;22158;59.280;17.806;2023-05-07T05:02:34;2.70;99.90
35668;DHT22;22158;59.280;17.806;2023-05-07T05:05:01;2.90;99.90
35668;DHT22;22158;59.280;17.806;2023-05-07T05:07:27;2.90;99.90
35668;DHT22;22158;59.280;17.806;2023-05-07T05:09:54;3.10;99.90
35668;DHT22;22158;59.280;17.806;2023-05-07T05:12:20;3.20;99.90
35668;DHT22;22158;59.280;17.806;2023-05-07T05:14:45;3.40;99.90
35668;DHT22;22158;59.280;17.806;2023-05-07T05:17:11;3.60;99.90
35668;DHT22;22158;59.280;17.806;2023-05-07T05:19:36;3.80;99.90
35668;DHT22;22158;59.280;17.806;2023-05-07T05:22:02;3.90;99.90
35668;DHT22;22158;59.280;17.806;2023-05-07T05:24:29;4.00;99.90
35668;DHT22;22158;59.280;17.806;2023-05-07T05:26:55;4.00;99.90
35668;DHT22;22158;59.280;17.806;2023-05-07T05:29:21;4.00;99.90
35668;DHT22;22158;59.280;17.806;2023-05-07T05:31:47;4.10;99.90
35668;DHT22;22158;59.280;17.806;2023-05-07T05:34:13;4.10;99.90
35668;DHT22;22158;59.280;17.806;2023-05-07T05:36:38;4.10;99.90
35668;DHT22;22158;59.280;17.806;2023-05-07T05:39:04;4.20;99.90
35668;DHT22;22158;59.280;17.806;2023-05-07T05:41:30;4.30;99.90
35668;DHT22;22158;59.280;17.806;2023-05-07T05:43:55;4.40;99.90
35668;DHT22;22158;59.280;17.806;2023-05-07T05:46:21;4.50;99.90
35668;DHT22;22158;59.280;17.806;2023-05-07T05:48:47;4.60;99.90
35668;DHT22;22158;59.280;17.806;2023-05-07T05:51:12;4.60;99.90
35668;DHT22;22158;59.280;17.806;2023-05-07T05:53:38;4.70;99.90
35668;DHT22;22158;59.280;17.806;2023-05-07T05:56:04;4.80;99.90
35668;DHT22;22158;59.280;17.806;2023-05-07T05:58:30;4.90;99.90
35668;DHT22;22158;59.280;17.806;2023-05-07T06:00:55;4.90;99.90
35668;DHT22;22158;59.280;17.806;2023-05-07T06:03:22;4.90;99.90
35668;DHT22;22158;59.280;17.806;2023-05-07T06:05:47;5.00;99.90
35668;DHT22;22158;59.280;17.806;2023-05-07T06:08:13;5.10;99.90
35668;DHT22;22158;59.280;17.806;2023-05-07T06:10:39;5.20;99.90
35668;DHT22;22158;59.280;17.806;2023-05-07T06:13:06;5.30;99.90
35668;DHT22;22158;59.280;17.806;2023-05-07T06:15:31;5.30;99.90
35668;DHT22;22158;59.280;17.806;2023-05-07T06:17:57;5.30;99.90
35668;DHT22;22158;59.280;17.806;2023-05-07T06:20:23;5.40;99.90
35668;DHT22;22158;59.280;17.806;2023-05-07T06:22:48;5.50;99.90
35668;DHT22;22158;59.280;17.806;2023-05-07T06:25:14;5.60;99.90
35668;DHT22;22158;59.280;17.806;2023-05-07T06:27:40;5.60;99.90
35668;DHT22;22158;59.280;17.806;2023-05-07T06:30:06;5.60;99.90
35668;DHT22;22158;59.280;17.806;2023-05-07T06:32:32;5.70;99.90
35668;DHT22;22158;59.280;17.806;2023-05-07T06:34:58;5.70;99.90
35668;DHT22;22158;59.280;17.806;2023-05-07T06:37:23;5.90;99.90
35668;DHT22;22158;59.280;17.806;2023-05-07T06:39:49;5.90;99.90
35668;DHT22;22158;59.280;17.806;2023-05-07T06:42:14;6.10;99.90
35668;DHT22;22158;59.280;17.806;2023-05-07T06:44:40;6.10;99.90
35668;DHT22;22158;59.280;17.806;2023-05-07T06:47:06;6.20;99.90
35668;DHT22;22158;59.280;17.806;2023-05-07T06:49:31;6.30;99.90
35668;DHT22;22158;59.280;17.806;2023-05-07T06:51:57;6.50;99.90
35668;DHT22;22158;59.280;17.806;2023-05-07T06:54:23;6.70;99.90
35668;DHT22;22158;59.280;17.806;2023-05-07T06:56:49;6.70;99.90
35668;DHT22;22158;59.280;17.806;2023-05-07T06:59:15;6.70;99.90
35668;DHT22;22158;59.280;17.806;2023-05-07T07:01:41;6.70;99.90
35668;DHT22;22158;59.280;17.806;2023-05-07T07:04:06;6.70;99.90
35668;DHT22;22158;59.280;17.806;2023-05-07T07:06:32;6.80;99.90
35668;DHT22;22158;59.280;17.806;2023-05-07T07:08:59;6.90;99.90
35668;DHT22;22158;59.280;17.806;2023-05-07T07:11:24;7.00;99.20
35668;DHT22;22158;59.280;17.806;2023-05-07T07:13:50;7.20;99.80
35668;DHT22;22158;59.280;17.806;2023-05-07T07:16:16;7.00;98.80
35668;DHT22;22158;59.280;17.806;2023-05-07T07:18:42;7.00;99.30
35668;DHT22;22158;59.280;17.806;2023-05-07T07:21:07;7.20;99.50
35668;DHT22;22158;59.280;17.806;2023-05-07T07:23:33;7.40;98.40
35668;DHT22;22158;59.280;17.806;2023-05-07T07:25:58;7.50;97.70
35668;DHT22;22158;59.280;17.806;2023-05-07T07:28:24;7.50;97.90
35668;DHT22;22158;59.280;17.806;2023-05-07T07:30:50;7.50;98.20
35668;DHT22;22158;59.280;17.806;2023-05-07T07:33:15;7.50;98.30
35668;DHT22;22158;59.280;17.806;2023-05-07T07:35:41;7.50;98.30
35668;DHT22;22158;59.280;17.806;2023-05-07T07:38:07;7.50;97.70
35668;DHT22;22158;59.280;17.806;2023-05-07T07:40:34;7.60;97.70
35668;DHT22;22158;59.280;17.806;2023-05-07T07:43:00;7.80;97.00
35668;DHT22;22158;59.280;17.806;2023-05-07T07:45:27;7.80;97.10
35668;DHT22;22158;59.280;17.806;2023-05-07T07:47:52;7.90;97.50
35668;DHT22;22158;59.280;17.806;2023-05-07T07:50:18;7.90;96.50
35668;DHT22;22158;59.280;17.806;2023-05-07T07:52:44;8.10;96.50
35668;DHT22;22158;59.280;17.806;2023-05-07T07:55:09;8.10;96.80
35668;DHT22;22158;59.280;17.806;2023-05-07T07:57:35;8.30;95.60
35668;DHT22;22158;59.280;17.806;2023-05-07T08:00:01;8.30;95.60
35668;DHT22;22158;59.280;17.806;2023-05-07T08:02:26;8.30;94.70
35668;DHT22;22158;59.280;17.806;2023-05-07T08:04:52;8.50;95.90
35668;DHT22;22158;59.280;17.806;2023-05-07T08:07:18;8.50;93.10
35668;DHT22;22158;59.280;17.806;2023-05-07T08:09:46;8.40;92.00
35668;DHT22;22158;59.280;17.806;2023-05-07T08:12:11;8.60;91.40
35668;DHT22;22158;59.280;17.806;2023-05-07T08:14:37;8.40;91.90
35668;DHT22;22158;59.280;17.806;2023-05-07T08:17:03;8.60;92.00
35668;DHT22;22158;59.280;17.806;2023-05-07T08:19:28;8.70;91.60
35668;DHT22;22158;59.280;17.806;2023-05-07T08:21:54;8.90;90.10
35668;DHT22;22158;59.280;17.806;2023-05-07T08:24:21;9.00;91.80
35668;DHT22;22158;59.280;17.806;2023-05-07T08:26:46;9.00;89.10
35668;DHT22;22158;59.280;17.806;2023-05-07T08:29:12;9.00;87.30
35668;DHT22;22158;59.280;17.806;2023-05-07T08:31:37;9.20;89.40
35668;DHT22;22158;59.280;17.806;2023-05-07T08:34:06;9.50;87.10
35668;DHT22;22158;59.280;17.806;2023-05-07T08:36:32;9.60;89.30
35668;DHT22;22158;59.280;17.806;2023-05-07T08:38:57;9.80;88.80
35668;DHT22;22158;59.280;17.806;2023-05-07T08:41:23;9.90;85.20
35668;DHT22;22158;59.280;17.806;2023-05-07T08:43:50;10.00;80.60
35668;DHT22;22158;59.280;17.806;2023-05-07T08:46:20;10.00;80.70
35668;DHT22;22158;59.280;17.806;2023-05-07T08:48:50;10.00;83.20
35668;DHT22;22158;59.280;17.806;2023-05-07T08:51:18;10.10;81.70
35668;DHT22;22158;59.280;17.806;2023-05-07T08:53:44;10.20;79.10
35668;DHT22;22158;59.280;17.806;2023-05-07T08:56:10;10.20;82.70
35668;DHT22;22158;59.280;17.806;2023-05-07T08:58:36;10.10;84.10
35668;DHT22;22158;59.280;17.806;2023-05-07T09:01:15;10.10;79.20
35668;DHT22;22158;59.280;17.806;2023-05-07T09:03:44;10.20;77.30
35668;DHT22;22158;59.280;17.806;2023-05-07T09:06:11;10.30;80.10
35668;DHT22;22158;59.280;17.806;2023-05-07T09:08:37;10.50;77.20
35668;DHT22;22158;59.280;17.806;2023-05-07T09:11:03;10.60;77.00
35668;DHT22;22158;59.280;17.806;2023-05-07T09:13:29;10.50;76.30
35668;DHT22;22158;59.280;17.806;2023-05-07T09:15:55;10.40;74.90
35668;DHT22;22158;59.280;17.806;2023-05-07T09:18:21;10.50;76.50
35668;DHT22;22158;59.280;17.806;2023-05-07T09:20:47;10.70;73.20
35668;DHT22;22158;59.280;17.806;2023-05-07T09:23:12;10.80;73.60
35668;DHT22;22158;59.280;17.806;2023-05-07T09:25:39;11.00;73.00
35668;DHT22;22158;59.280;17.806;2023-05-07T09:28:05;11.10;72.90
35668;DHT22;22158;59.280;17.806;2023-05-07T09:30:33;11.00;72.00
35668;DHT22;22158;59.280;17.806;2023-05-07T09:33:00;11.30;68.90
35668;DHT22;22158;59.280;17.806;2023-05-07T09:35:26;11.30;69.40
35668;DHT22;22158;59.280;17.806;2023-05-07T09:37:57;11.50;69.00
35668;DHT22;22158;59.280;17.806;2023-05-07T09:40:24;11.50;63.70
35668;DHT22;22158;59.280;17.806;2023-05-07T09:42:51;11.60;64.50
35668;DHT22;22158;59.280;17.806;2023-05-07T09:45:27;11.70;62.20
35668;DHT22;22158;59.280;17.806;2023-05-07T09:47:57;11.70;62.90
35668;DHT22;22158;59.280;17.806;2023-05-07T09:50:36;11.70;64.50
35668;DHT22;22158;59.280;17.806;2023-05-07T09:53:03;12.00;70.30
35668;DHT22;22158;59.280;17.806;2023-05-07T09:55:29;12.00;67.40
35668;DHT22;22158;59.280;17.806;2023-05-07T09:57:55;12.20;62.80
35668;DHT22;22158;59.280;17.806;2023-05-07T10:00:22;12.30;63.40
35668;DHT22;22158;59.280;17.806;2023-05-07T10:02:50;12.20;62.90
35668;DHT22;22158;59.280;17.806;2023-05-07T10:05:18;12.20;64.10
35668;DHT22;22158;59.280;17.806;2023-05-07T10:07:45;12.40;62.80
35668;DHT22;22158;59.280;17.806;2023-05-07T10:10:11;12.50;62.60
35668;DHT22;22158;59.280;17.806;2023-05-07T10:12:38;12.60;63.20
35668;DHT22;22158;59.280;17.806;2023-05-07T10:15:06;12.80;64.40
35668;DHT22;22158;59.280;17.806;2023-05-07T10:17:35;12.90;60.70
35668;DHT22;22158;59.280;17.806;2023-05-07T10:20:01;12.40;62.10
35668;DHT22;22158;59.280;17.806;2023-05-07T10:22:27;12.50;60.40
35668;DHT22;22158;59.280;17.806;2023-05-07T10:24:53;12.60;60.10
35668;DHT22;22158;59.280;17.806;2023-05-07T10:27:22;12.70;61.40
35668;DHT22;22158;59.280;17.806;2023-05-07T10:30:07;12.90;60.50
35668;DHT22;22158;59.280;17.806;2023-05-07T10:32:47;13.10;60.90
35668;DHT22;22158;59.280;17.806;2023-05-07T10:35:25;13.20;57.70
35668;DHT22;22158;59.280;17.806;2023-05-07T10:37:51;12.90;60.30
35668;DHT22;22158;59.280;17.806;2023-05-07T10:40:18;13.00;60.90
35668;DHT22;22158;59.280;17.806;2023-05-07T10:43:01;13.10;59.00
35668;DHT22;22158;59.280;17.806;2023-05-07T10:45:29;13.10;57.50
35668;DHT22;22158;59.280;17.806;2023-05-07T10:48:13;12.90;58.00
35668;DHT22;22158;59.280;17.806;2023-05-07T10:50:41;13.10;59.10
35668;DHT22;22158;59.280;17.806;2023-05-07T10:55:47;13.30;59.50
35668;DHT22;22158;59.280;17.806;2023-05-07T10:58:24;13.10;57.80
35668;DHT22;22158;59.280;17.806;2023-05-07T11:01:00;13.30;56.40
35668;DHT22;22158;59.280;17.806;2023-05-07T11:03:26;13.30;57.50
35668;DHT22;22158;59.280;17.806;2023-05-07T11:06:11;13.30;57.80
35668;DHT22;22158;59.280;17.806;2023-05-07T11:11:18;13.70;57.30
35668;DHT22;22158;59.280;17.806;2023-05-07T11:13:46;13.80;55.20
35668;DHT22;22158;59.280;17.806;2023-05-07T11:16:23;14.00;53.90
35668;DHT22;22158;59.280;17.806;2023-05-07T11:18:50;14.00;58.00
35668;DHT22;22158;59.280;17.806;2023-05-07T11:21:35;14.30;54.70
35668;DHT22;22158;59.280;17.806;2023-05-07T11:24:02;14.40;53.50
35668;DHT22;22158;59.280;17.806;2023-05-07T11:26:30;14.50;55.60
35668;DHT22;22158;59.280;17.806;2023-05-07T11:28:57;14.50;57.20
35668;DHT22;22158;59.280;17.806;2023-05-07T11:31:27;14.60;55.20
35668;DHT22;22158;59.280;17.806;2023-05-07T11:33:54;14.80;55.20
35668;DHT22;22158;59.280;17.806;2023-05-07T11:36:22;14.90;55.70
35668;DHT22;22158;59.280;17.806;2023-05-07T11:38:47;15.00;54.90
35668;DHT22;22158;59.280;17.806;2023-05-07T11:41:13;14.50;55.00
35668;DHT22;22158;59.280;17.806;2023-05-07T11:43:53;14.60;58.60
35668;DHT22;22158;59.280;17.806;2023-05-07T11:46:20;14.30;56.80
35668;DHT22;22158;59.280;17.806;2023-05-07T11:48:45;14.60;57.60
35668;DHT22;22158;59.280;17.806;2023-05-07T11:51:11;14.80;54.90
35668;DHT22;22158;59.280;17.806;2023-05-07T11:53:40;14.80;57.10
35668;DHT22;22158;59.280;17.806;2023-05-07T11:56:14;14.60;56.40
35668;DHT22;22158;59.280;17.806;2023-05-07T11:58:41;14.60;54.70
35668;DHT22;22158;59.280;17.806;2023-05-07T12:01:09;14.70;58.90
35668;DHT22;22158;59.280;17.806;2023-05-07T12:03:36;15.00;58.30
35668;DHT22;22158;59.280;17.806;2023-05-07T12:06:05;15.00;56.80
35668;DHT22;22158;59.280;17.806;2023-05-07T12:08:31;15.30;57.80
35668;DHT22;22158;59.280;17.806;2023-05-07T12:10:57;15.50;57.00
35668;DHT22;22158;59.280;17.806;2023-05-07T12:13:24;15.60;57.20
35668;DHT22;22158;59.280;17.806;2023-05-07T12:15:53;15.70;55.70
35668;DHT22;22158;59.280;17.806;2023-05-07T12:18:19;15.50;55.90
35668;DHT22;22158;59.280;17.806;2023-05-07T12:20:46;15.50;56.70
35668;DHT22;22158;59.280;17.806;2023-05-07T12:23:13;15.60;56.20
35668;DHT22;22158;59.280;17.806;2023-05-07T12:25:40;15.00;56.50
35668;DHT22;22158;59.280;17.806;2023-05-07T12:28:12;15.00;56.10
35668;DHT22;22158;59.280;17.806;2023-05-07T12:30:38;15.00;55.70
35668;DHT22;22158;59.280;17.806;2023-05-07T12:33:04;15.00;56.60
35668;DHT22;22158;59.280;17.806;2023-05-07T12:35:39;15.20;61.00
35668;DHT22;22158;59.280;17.806;2023-05-07T12:38:11;15.50;56.80
35668;DHT22;22158;59.280;17.806;2023-05-07T12:40:39;15.70;56.80
35668;DHT22;22158;59.280;17.806;2023-05-07T12:43:05;15.80;56.10
35668;DHT22;22158;59.280;17.806;2023-05-07T12:45:31;15.80;55.70
35668;DHT22;22158;59.280;17.806;2023-05-07T12:48:01;15.90;57.40
35668;DHT22;22158;59.280;17.806;2023-05-07T12:50:31;15.90;58.10
35668;DHT22;22158;59.280;17.806;2023-05-07T12:52:58;15.80;57.30
35668;DHT22;22158;59.280;17.806;2023-05-07T12:55:24;16.10;56.30
35668;DHT22;22158;59.280;17.806;2023-05-07T12:57:50;16.00;55.40
35668;DHT22;22158;59.280;17.806;2023-05-07T13:00:17;16.20;57.40
35668;DHT22;22158;59.280;17.806;2023-05-07T13:02:43;16.00;56.70
35668;DHT22;22158;59.280;17.806;2023-05-07T13:05:12;16.20;58.00
35668;DHT22;22158;59.280;17.806;2023-05-07T13:07:38;16.20;54.80
35668;DHT22;22158;59.280;17.806;2023-05-07T13:10:05;16.00;54.30
35668;DHT22;22158;59.280;17.806;2023-05-07T13:12:30;15.70;56.10
35668;DHT22;22158;59.280;17.806;2023-05-07T13:14:56;15.20;54.80
35668;DHT22;22158;59.280;17.806;2023-05-07T13:17:22;15.20;55.90
35668;DHT22;22158;59.280;17.806;2023-05-07T13:19:47;15.20;58.30
35668;DHT22;22158;59.280;17.806;2023-05-07T13:22:13;15.60;55.30
35668;DHT22;22158;59.280;17.806;2023-05-07T13:24:38;15.90;55.60
35668;DHT22;22158;59.280;17.806;2023-05-07T13:27:07;15.80;56.20
35668;DHT22;22158;59.280;17.806;2023-05-07T13:29:32;16.10;56.20
35668;DHT22;22158;59.280;17.806;2023-05-07T13:31:58;16.50;56.20
35668;DHT22;22158;59.280;17.806;2023-05-07T13:34:24;16.10;53.60
35668;DHT22;22158;59.280;17.806;2023-05-07T13:36:49;16.00;53.40
35668;DHT22;22158;59.280;17.806;2023-05-07T13:39:15;16.10;54.00
35668;DHT22;22158;59.280;17.806;2023-05-07T13:41:41;16.10;55.30
35668;DHT22;22158;59.280;17.806;2023-05-07T13:44:07;16.40;53.40
35668;DHT22;22158;59.280;17.806;2023-05-07T13:46:32;16.40;53.10
35668;DHT22;22158;59.280;17.806;2023-05-07T13:48:58;15.80;53.80
35668;DHT22;22158;59.280;17.806;2023-05-07T13:51:24;16.10;56.70
35668;DHT22;22158;59.280;17.806;2023-05-07T13:53:49;16.10;52.90
35668;DHT22;22158;59.280;17.806;2023-05-07T13:56:15;16.00;54.10
35668;DHT22;22158;59.280;17.806;2023-05-07T13:58:41;15.70;53.90
35668;DHT22;22158;59.280;17.806;2023-05-07T14:01:06;15.60;54.50
35668;DHT22;22158;59.280;17.806;2023-05-07T14:03:32;15.70;54.10
35668;DHT22;22158;59.280;17.806;2023-05-07T14:05:59;15.80;51.80
35668;DHT22;22158;59.280;17.806;2023-05-07T14:08:26;16.00;53.40
35668;DHT22;22158;59.280;17.806;2023-05-07T14:10:52;16.40;53.50
35668;DHT22;22158;59.280;17.806;2023-05-07T14:13:18;16.50;51.90
35668;DHT22;22158;59.280;17.806;2023-05-07T14:15:43;16.60;53.10
35668;DHT22;22158;59.280;17.806;2023-05-07T14:18:12;16.70;54.90
35668;DHT22;22158;59.280;17.806;2023-05-07T14:20:38;17.10;55.30
35668;DHT22;22158;59.280;17.806;2023-05-07T14:23:04;17.40;50.80
35668;DHT22;22158;59.280;17.806;2023-05-07T14:25:30;17.40;52.10
35668;DHT22;22158;59.280;17.806;2023-05-07T14:27:55;17.70;49.80
35668;DHT22;22158;59.280;17.806;2023-05-07T14:30:21;17.70;48.50
35668;DHT22;22158;59.280;17.806;2023-05-07T14:32:50;17.90;50.30
35668;DHT22;22158;59.280;17.806;2023-05-07T14:35:16;18.00;50.00
35668;DHT22;22158;59.280;17.806;2023-05-07T14:37:42;18.20;49.10
35668;DHT22;22158;59.280;17.806;2023-05-07T14:40:08;18.20;47.00
35668;DHT22;22158;59.280;17.806;2023-05-07T14:42:34;17.50;48.20
35668;DHT22;22158;59.280;17.806;2023-05-07T14:45:00;17.30;48.20
35668;DHT22;22158;59.280;17.806;2023-05-07T14:47:25;17.30;47.80
35668;DHT22;22158;59.280;17.806;2023-05-07T14:49:51;17.20;47.90
35668;DHT22;22158;59.280;17.806;2023-05-07T14:52:16;17.40;48.50
35668;DHT22;22158;59.280;17.806;2023-05-07T14:54:42;17.40;48.90
35668;DHT22;22158;59.280;17.806;2023-05-07T14:57:09;17.70;47.60
35668;DHT22;22158;59.280;17.806;2023-05-07T14:59:35;17.80;46.70
35668;DHT22;22158;59.280;17.806;2023-05-07T15:02:02;17.80;46.00
35668;DHT22;22158;59.280;17.806;2023-05-07T15:04:30;17.60;46.40
35668;DHT22;22158;59.280;17.806;2023-05-07T15:06:56;17.40;48.50
35668;DHT22;22158;59.280;17.806;2023-05-07T15:09:21;17.70;47.60
35668;DHT22;22158;59.280;17.806;2023-05-07T15:11:47;17.90;46.10
35668;DHT22;22158;59.280;17.806;2023-05-07T15:14:12;18.00;44.00
35668;DHT22;22158;59.280;17.806;2023-05-07T15:16:38;17.70;42.90
35668;DHT22;22158;59.280;17.806;2023-05-07T15:19:04;17.30;44.70
35668;DHT22;22158;59.280;17.806;2023-05-07T15:21:29;17.00;44.50
35668;DHT22;22158;59.280;17.806;2023-05-07T15:23:58;16.90;44.90
35668;DHT22;22158;59.280;17.806;2023-05-07T15:26:23;16.80;45.90
35668;DHT22;22158;59.280;17.806;2023-05-07T15:28:49;16.50;43.00
35668;DHT22;22158;59.280;17.806;2023-05-07T15:31:15;16.50;45.30
35668;DHT22;22158;59.280;17.806;2023-05-07T15:33:41;16.60;43.80
35668;DHT22;22158;59.280;17.806;2023-05-07T15:36:07;16.60;43.30
35668;DHT22;22158;59.280;17.806;2023-05-07T15:38:32;16.10;44.20
35668;DHT22;22158;59.280;17.806;2023-05-07T15:40:58;16.20;44.60
35668;DHT22;22158;59.280;17.806;2023-05-07T15:43:24;15.90;44.30
35668;DHT22;22158;59.280;17.806;2023-05-07T15:45:50;16.00;45.50
35668;DHT22;22158;59.280;17.806;2023-05-07T15:48:16;15.90;43.80
35668;DHT22;22158;59.280;17.806;2023-05-07T15:50:42;15.80;43.50
35668;DHT22;22158;59.280;17.806;2023-05-07T15:53:07;15.70;43.60
35668;DHT22;22158;59.280;17.806;2023-05-07T15:55:33;15.40;45.00
35668;DHT22;22158;59.280;17.806;2023-05-07T15:57:59;15.20;45.30
35668;DHT22;22158;59.280;17.806;2023-05-07T16:00:28;14.90;46.00
35668;DHT22;22158;59.280;17.806;2023-05-07T16:02:53;14.60;47.20
35668;DHT22;22158;59.280;17.806;2023-05-07T16:05:19;14.40;47.70
35668;DHT22;22158;59.280;17.806;2023-05-07T16:07:45;13.90;48.80
35668;DHT22;22158;59.280;17.806;2023-05-07T16:10:10;13.90;50.10
35668;DHT22;22158;59.280;17.806;2023-05-07T16:12:36;14.10;51.10
35668;DHT22;22158;59.280;17.806;2023-05-07T16:15:02;14.20;50.70
35668;DHT22;22158;59.280;17.806;2023-05-07T16:17:28;14.20;51.90
35668;DHT22;22158;59.280;17.806;2023-05-07T16:19:53;14.30;52.60
35668;DHT22;22158;59.280;17.806;2023-05-07T16:22:19;14.40;53.30
35668;DHT22;22158;59.280;17.806;2023-05-07T16:24:44;14.60;52.00
35668;DHT22;22158;59.280;17.806;2023-05-07T16:27:10;14.70;52.40
35668;DHT22;22158;59.280;17.806;2023-05-07T16:29:36;14.50;51.40
35668;DHT22;22158;59.280;17.806;2023-05-07T16:32:01;14.50;51.80
35668;DHT22;22158;59.280;17.806;2023-05-07T16:34:27;14.40;52.00
35668;DHT22;22158;59.280;17.806;2023-05-07T16:36:53;14.40;51.50
35668;DHT22;22158;59.280;17.806;2023-05-07T16:39:18;14.30;52.30
35668;DHT22;22158;59.280;17.806;2023-05-07T16:41:44;14.20;52.60
35668;DHT22;22158;59.280;17.806;2023-05-07T16:44:13;14.30;52.30
35668;DHT22;22158;59.280;17.806;2023-05-07T16:46:39;14.00;51.80
35668;DHT22;22158;59.280;17.806;2023-05-07T16:49:05;13.80;52.80
35668;DHT22;22158;59.280;17.806;2023-05-07T16:51:32;13.80;52.60
35668;DHT22;22158;59.280;17.806;2023-05-07T16:53:58;13.70;53.60
35668;DHT22;22158;59.280;17.806;2023-05-07T16:56:23;13.70;52.50
35668;DHT22;22158;59.280;17.806;2023-05-07T16:58:49;13.50;53.00
35668;DHT22;22158;59.280;17.806;2023-05-07T17:01:14;13.10;52.40
35668;DHT22;22158;59.280;17.806;2023-05-07T17:03:41;12.40;52.30
35668;DHT22;22158;59.280;17.806;2023-05-07T17:06:06;12.20;53.30
35668;DHT22;22158;59.280;17.806;2023-05-07T17:08:38;12.00;53.50
35668;DHT22;22158;59.280;17.806;2023-05-07T17:11:03;11.90;54.70
35668;DHT22;22158;59.280;17.806;2023-05-07T17:13:29;11.80;54.60
35668;DHT22;22158;59.280;17.806;2023-05-07T17:15:55;11.90;54.20
35668;DHT22;22158;59.280;17.806;2023-05-07T17:18:20;11.80;54.50
35668;DHT22;22158;59.280;17.806;2023-05-07T17:20:46;11.60;54.80
35668;DHT22;22158;59.280;17.806;2023-05-07T17:23:11;11.70;55.20
35668;DHT22;22158;59.280;17.806;2023-05-07T17:25:38;11.40;55.30
35668;DHT22;22158;59.280;17.806;2023-05-07T17:28:03;11.40;55.70
35668;DHT22;22158;59.280;17.806;2023-05-07T17:30:29;11.30;56.40
35668;DHT22;22158;59.280;17.806;2023-05-07T17:32:55;11.20;56.20
35668;DHT22;22158;59.280;17.806;2023-05-07T17:35:21;11.10;55.50
35668;DHT22;22158;59.280;17.806;2023-05-07T17:37:47;11.00;55.90
35668;DHT22;22158;59.280;17.806;2023-05-07T17:40:18;10.90;56.50
35668;DHT22;22158;59.280;17.806;2023-05-07T17:42:44;10.80;56.60
35668;DHT22;22158;59.280;17.806;2023-05-07T17:45:10;10.80;56.70
35668;DHT22;22158;59.280;17.806;2023-05-07T17:47:36;10.70;57.20
35668;DHT22;22158;59.280;17.806;2023-05-07T17:50:02;10.70;58.10
35668;DHT22;22158;59.280;17.806;2023-05-07T17:52:30;10.70;57.20
35668;DHT22;22158;59.280;17.806;2023-05-07T17:54:55;10.40;57.90
35668;DHT22;22158;59.280;17.806;2023-05-07T17:57:21;10.50;59.10
35668;DHT22;22158;59.280;17.806;2023-05-07T17:59:46;10.30;58.80
35668;DHT22;22158;59.280;17.806;2023-05-07T18:02:12;10.30;59.40
35668;DHT22;22158;59.280;17.806;2023-05-07T18:04:38;10.30;59.70
35668;DHT22;22158;59.280;17.806;2023-05-07T18:07:03;10.30;60.90
35668;DHT22;22158;59.280;17.806;2023-05-07T18:09:29;10.30;60.30
35668;DHT22;22158;59.280;17.806;2023-05-07T18:11:55;10.40;62.00
35668;DHT22;22158;59.280;17.806;2023-05-07T18:14:20;10.30;60.70
35668;DHT22;22158;59.280;17.806;2023-05-07T18:16:50;10.30;60.80
35668;DHT22;22158;59.280;17.806;2023-05-07T18:19:16;10.10;61.00
35668;DHT22;22158;59.280;17.806;2023-05-07T18:21:42;10.10;62.50
35668;DHT22;22158;59.280;17.806;2023-05-07T18:24:07;10.10;62.20
35668;DHT22;22158;59.280;17.806;2023-05-07T18:26:33;10.10;62.30
35668;DHT22;22158;59.280;17.806;2023-05-07T18:28:58;9.90;62.80
35668;DHT22;22158;59.280;17.806;2023-05-07T18:31:24;9.90;63.50
35668;DHT22;22158;59.280;17.806;2023-05-07T18:33:50;9.80;64.30
35668;DHT22;22158;59.280;17.806;2023-05-07T18:36:16;9.70;65.30
35668;DHT22;22158;59.280;17.806;2023-05-07T18:38:42;9.70;65.50
35668;DHT22;22158;59.280;17.806;2023-05-07T18:41:08;9.60;65.80
35668;DHT22;22158;59.280;17.806;2023-05-07T18:43:33;9.50;66.40
35668;DHT22;22158;59.280;17.806;2023-05-07T18:45:59;9.50;67.00
35668;DHT22;22158;59.280;17.806;2023-05-07T18:48:25;9.50;66.60
35668;DHT22;22158;59.280;17.806;2023-05-07T18:50:50;9.30;67.10
35668;DHT22;22158;59.280;17.806;2023-05-07T18:53:17;9.20;67.30
35668;DHT22;22158;59.280;17.806;2023-05-07T18:55:42;9.00;68.40
35668;DHT22;22158;59.280;17.806;2023-05-07T18:58:11;8.90;69.20
35668;DHT22;22158;59.280;17.806;2023-05-07T19:00:36;8.90;69.00
35668;DHT22;22158;59.280;17.806;2023-05-07T19:03:02;8.80;69.50
35668;DHT22;22158;59.280;17.806;2023-05-07T19:05:27;8.80;69.80
35668;DHT22;22158;59.280;17.806;2023-05-07T19:07:53;8.70;70.40
35668;DHT22;22158;59.280;17.806;2023-05-07T19:10:19;8.70;71.30
35668;DHT22;22158;59.280;17.806;2023-05-07T19:12:44;8.70;72.00
35668;DHT22;22158;59.280;17.806;2023-05-07T19:15:10;8.70;72.30
35668;DHT22;22158;59.280;17.806;2023-05-07T19:17:36;8.60;73.10
35668;DHT22;22158;59.280;17.806;2023-05-07T19:20:02;8.60;73.20
35668;DHT22;22158;59.280;17.806;2023-05-07T19:22:28;8.60;74.10
35668;DHT22;22158;59.280;17.806;2023-05-07T19:24:54;8.60;74.40
35668;DHT22;22158;59.280;17.806;2023-05-07T19:27:19;8.60;74.20
35668;DHT22;22158;59.280;17.806;2023-05-07T19:29:45;8.40;75.00
35668;DHT22;22158;59.280;17.806;2023-05-07T19:32:11;8.40;76.00
35668;DHT22;22158;59.280;17.806;2023-05-07T19:34:36;8.20;76.80
35668;DHT22;22158;59.280;17.806;2023-05-07T19:37:02;8.20;77.30
35668;DHT22;22158;59.280;17.806;2023-05-07T19:39:29;8.10;78.10
35668;DHT22;22158;59.280;17.806;2023-05-07T19:41:55;8.20;78.00
35668;DHT22;22158;59.280;17.806;2023-05-07T19:44:20;8.10;79.60
35668;DHT22;22158;59.280;17.806;2023-05-07T19:46:46;8.10;79.70
35668;DHT22;22158;59.280;17.806;2023-05-07T19:49:12;8.10;79.80
35668;DHT22;22158;59.280;17.806;2023-05-07T19:51:38;8.00;80.30
35668;DHT22;22158;59.280;17.806;2023-05-07T19:54:04;7.90;80.80
35668;DHT22;22158;59.280;17.806;2023-05-07T19:56:29;7.90;81.60
35668;DHT22;22158;59.280;17.806;2023-05-07T19:58:55;7.80;82.50
35668;DHT22;22158;59.280;17.806;2023-05-07T20:01:21;7.80;82.70
35668;DHT22;22158;59.280;17.806;2023-05-07T20:03:46;7.80;83.40
35668;DHT22;22158;59.280;17.806;2023-05-07T20:06:12;7.70;84.20
35668;DHT22;22158;59.280;17.806;2023-05-07T20:08:37;7.60;85.10
35668;DHT22;22158;59.280;17.806;2023-05-07T20:11:03;7.60;85.50
35668;DHT22;22158;59.280;17.806;2023-05-07T20:13:29;7.70;86.40
35668;DHT22;22158;59.280;17.806;2023-05-07T20:15:58;7.50;87.40
35668;DHT22;22158;59.280;17.806;2023-05-07T20:18:26;7.50;88.60
35668;DHT22;22158;59.280;17.806;2023-05-07T20:20:51;7.50;89.70
35668;DHT22;22158;59.280;17.806;2023-05-07T20:23:17;7.40;90.40
35668;DHT22;22158;59.280;17.806;2023-05-07T20:25:43;7.30;90.50